sensor_id;sensor_type;location;lat;lon;timestamp;pressure;altitude;pressure_sealevel;temperature;humidity
20612;BME280;10465;42.686;23.364;2023-03-20T00:00:11;95312.34;;;10.22;54.71
20612;BME280;10465;42.686;23.364;2023-03-20T00:02:40;95268.22;;;9.71;55.08
20612;BME280;10465;42.686;23.364;2023-03-20T00:05:25;95311.72;;;9.97;55.64
20612;BME280;10465;42.686;23.364;2023-03-20T00:07:53;95301.91;;;9.98;55.32
20612;BME280;10465;42.686;23.364;2023-03-20T00:10:20;95289.06;;;9.91;55.35
20612;BME280;10465;42.686;23.364;2023-03-20T00:12:47;95309.34;;;9.96;55.30
20612;BME280;10465;42.686;23.364;2023-03-20T00:15:23;95306.41;;;9.97;55.82
20612;BME280;10465;42.686;23.364;2023-03-20T00:17:50;95304.22;;;9.85;56.24
20612;BME280;10465;42.686;23.364;2023-03-20T00:20:16;95294.22;;;9.82;55.86
20612;BME280;10465;42.686;23.364;2023-03-20T00:22:41;95298.88;;;9.72;56.52
20612;BME280;10465;42.686;23.364;2023-03-20T00:25:12;95295.97;;;9.73;56.88
20612;BME280;10465;42.686;23.364;2023-03-20T00:27:38;95283.75;;;9.58;57.00
20612;BME280;10465;42.686;23.364;2023-03-20T00:30:18;95270.63;;;9.53;56.57
20612;BME280;10465;42.686;23.364;2023-03-20T00:32:44;95289.94;;;9.68;56.40
20612;BME280;10465;42.686;23.364;2023-03-20T00:35:25;95296.81;;;9.69;56.57
20612;BME280;10465;42.686;23.364;2023-03-20T00:37:52;95283.41;;;9.65;56.33
20612;BME280;10465;42.686;23.364;2023-03-20T00:40:19;95277.13;;;9.61;57.33
20612;BME280;10465;42.686;23.364;2023-03-20T00:42:48;95290.00;;;9.81;57.67
20612;BME280;10465;42.686;23.364;2023-03-20T00:45:18;95287.56;;;9.85;57.52
20612;BME280;10465;42.686;23.364;2023-03-20T00:47:47;95264.09;;;9.64;56.88
20612;BME280;10465;42.686;23.364;2023-03-20T00:50:15;95292.16;;;9.79;57.04
20612;BME280;10465;42.686;23.364;2023-03-20T00:52:41;95290.38;;;9.75;57.02
20612;BME280;10465;42.686;23.364;2023-03-20T00:55:07;95263.13;;;9.60;58.19
20612;BME280;10465;42.686;23.364;2023-03-20T00:57:45;95282.94;;;9.77;57.70
20612;BME280;10465;42.686;23.364;2023-03-20T01:02:56;95262.13;;;9.56;57.53
20612;BME280;10465;42.686;23.364;2023-03-20T01:05:23;95279.38;;;9.68;57.47
20612;BME280;10465;42.686;23.364;2023-03-20T01:07:48;95275.72;;;9.63;57.79
20612;BME280;10465;42.686;23.364;2023-03-20T01:10:15;95251.81;;;9.55;58.29
20612;BME280;10465;42.686;23.364;2023-03-20T01:12:42;95263.91;;;9.61;57.70
20612;BME280;10465;42.686;23.364;2023-03-20T01:15:16;95268.00;;;9.67;57.68
20612;BME280;10465;42.686;23.364;2023-03-20T01:17:43;95261.03;;;9.57;57.94
20612;BME280;10465;42.686;23.364;2023-03-20T01:20:14;95258.53;;;9.66;57.66
20612;BME280;10465;42.686;23.364;2023-03-20T01:22:41;95244.75;;;9.50;57.96
20612;BME280;10465;42.686;23.364;2023-03-20T01:25:06;95226.88;;;9.28;57.76
20612;BME280;10465;42.686;23.364;2023-03-20T01:27:32;95232.78;;;9.39;57.01
20612;BME280;10465;42.686;23.364;2023-03-20T01:29:57;95268.97;;;9.57;57.50
20612;BME280;10465;42.686;23.364;2023-03-20T01:32:23;95264.94;;;9.60;57.52
20612;BME280;10465;42.686;23.364;2023-03-20T01:34:48;95246.28;;;9.37;58.67
20612;BME280;10465;42.686;23.364;2023-03-20T01:37:17;95271.41;;;9.54;59.13
20612;BME280;10465;42.686;23.364;2023-03-20T01:39:43;95254.84;;;9.48;60.08
20612;BME280;10465;42.686;23.364;2023-03-20T01:42:12;95272.59;;;9.61;59.49
20612;BME280;10465;42.686;23.364;2023-03-20T01:44:39;95277.03;;;9.47;60.66
20612;BME280;10465;42.686;23.364;2023-03-20T01:47:14;95257.16;;;9.36;60.05
20612;BME280;10465;42.686;23.364;2023-03-20T01:50:19;95272.41;;;9.39;58.73
20612;BME280;10465;42.686;23.364;2023-03-20T01:52:52;95283.69;;;9.26;59.08
20612;BME280;10465;42.686;23.364;2023-03-20T01:55:19;95264.47;;;9.01;59.20
20612;BME280;10465;42.686;23.364;2023-03-20T01:57:46;95280.81;;;9.03;59.51
20612;BME280;10465;42.686;23.364;2023-03-20T02:00:14;95281.13;;;9.02;59.15
20612;BME280;10465;42.686;23.364;2023-03-20T02:02:43;95259.53;;;8.76;59.51
20612;BME280;10465;42.686;23.364;2023-03-20T02:05:10;95263.22;;;8.75;60.37
20612;BME280;10465;42.686;23.364;2023-03-20T02:07:37;95277.31;;;8.89;60.20
20612;BME280;10465;42.686;23.364;2023-03-20T02:10:08;95274.16;;;8.87;59.79
20612;BME280;10465;42.686;23.364;2023-03-20T02:12:35;95223.41;;;8.52;60.30
20612;BME280;10465;42.686;23.364;2023-03-20T02:15:01;95257.47;;;8.73;60.30
20612;BME280;10465;42.686;23.364;2023-03-20T02:17:27;95238.94;;;8.54;60.79
20612;BME280;10465;42.686;23.364;2023-03-20T02:27:56;95267.78;;;8.69;60.52
20612;BME280;10465;42.686;23.364;2023-03-20T02:36:17;95251.34;;;8.53;60.49
20612;BME280;10465;42.686;23.364;2023-03-20T02:42:02;95269.44;;;8.65;60.95
20612;BME280;10465;42.686;23.364;2023-03-20T02:47:49;95246.25;;;8.38;61.74
20612;BME280;10465;42.686;23.364;2023-03-20T02:50:19;95253.97;;;8.29;62.28
20612;BME280;10465;42.686;23.364;2023-03-20T02:52:57;95255.66;;;8.20;62.47
20612;BME280;10465;42.686;23.364;2023-03-20T03:00:41;95252.06;;;8.11;62.62
20612;BME280;10465;42.686;23.364;2023-03-20T03:03:36;95254.22;;;8.04;63.38
20612;BME280;10465;42.686;23.364;2023-03-20T03:06:10;95253.50;;;8.22;63.01
20612;BME280;10465;42.686;23.364;2023-03-20T03:08:42;95252.88;;;8.30;63.16
20612;BME280;10465;42.686;23.364;2023-03-20T03:11:09;95250.47;;;8.34;63.19
20612;BME280;10465;42.686;23.364;2023-03-20T03:13:38;95256.81;;;8.33;63.41
20612;BME280;10465;42.686;23.364;2023-03-20T03:16:09;95244.25;;;8.25;62.71
20612;BME280;10465;42.686;23.364;2023-03-20T03:18:38;95255.94;;;8.42;62.29
20612;BME280;10465;42.686;23.364;2023-03-20T03:21:06;95227.34;;;8.26;62.76
20612;BME280;10465;42.686;23.364;2023-03-20T03:23:39;95236.28;;;8.30;62.49
20612;BME280;10465;42.686;23.364;2023-03-20T03:26:06;95246.22;;;8.43;62.48
20612;BME280;10465;42.686;23.364;2023-03-20T03:28:45;95246.50;;;8.36;62.37
20612;BME280;10465;42.686;23.364;2023-03-20T03:31:15;95234.22;;;8.27;62.81
20612;BME280;10465;42.686;23.364;2023-03-20T03:33:45;95238.53;;;8.17;62.51
20612;BME280;10465;42.686;23.364;2023-03-20T03:39:23;95258.44;;;8.29;62.06
20612;BME280;10465;42.686;23.364;2023-03-20T03:41:54;95260.69;;;8.16;62.56
20612;BME280;10465;42.686;23.364;2023-03-20T03:44:30;95245.25;;;8.05;62.54
20612;BME280;10465;42.686;23.364;2023-03-20T03:47:13;95256.03;;;8.08;62.71
20612;BME280;10465;42.686;23.364;2023-03-20T03:49:48;95259.22;;;8.05;62.34
20612;BME280;10465;42.686;23.364;2023-03-20T03:52:18;95253.94;;;8.05;62.26
20612;BME280;10465;42.686;23.364;2023-03-20T03:55:10;95263.69;;;8.05;62.20
20612;BME280;10465;42.686;23.364;2023-03-20T03:57:56;95251.34;;;8.00;62.22
20612;BME280;10465;42.686;23.364;2023-03-20T04:00:24;95255.31;;;7.98;62.10
20612;BME280;10465;42.686;23.364;2023-03-20T04:02:55;95253.03;;;7.91;62.34
20612;BME280;10465;42.686;23.364;2023-03-20T04:05:22;95154.06;;;7.16;62.68
20612;BME280;10465;42.686;23.364;2023-03-20T04:07:52;95245.66;;;7.59;63.51
20612;BME280;10465;42.686;23.364;2023-03-20T04:10:19;95232.84;;;7.47;63.60
20612;BME280;10465;42.686;23.364;2023-03-20T04:12:45;95247.19;;;7.65;63.55
20612;BME280;10465;42.686;23.364;2023-03-20T04:15:12;95241.38;;;7.68;63.15
20612;BME280;10465;42.686;23.364;2023-03-20T04:17:38;95233.34;;;7.49;63.43
20612;BME280;10465;42.686;23.364;2023-03-20T04:20:05;95242.00;;;7.55;63.85
20612;BME280;10465;42.686;23.364;2023-03-20T04:22:30;95214.94;;;7.44;63.74
20612;BME280;10465;42.686;23.364;2023-03-20T04:25:02;95209.00;;;7.28;63.91
20612;BME280;10465;42.686;23.364;2023-03-20T04:27:28;95241.88;;;7.36;64.18
20612;BME280;10465;42.686;23.364;2023-03-20T04:29:54;95230.91;;;7.24;64.52
20612;BME280;10465;42.686;23.364;2023-03-20T04:32:19;95211.78;;;7.08;64.74
20612;BME280;10465;42.686;23.364;2023-03-20T04:34:45;95238.13;;;7.08;64.96
20612;BME280;10465;42.686;23.364;2023-03-20T04:37:10;95224.69;;;7.09;64.45
20612;BME280;10465;42.686;23.364;2023-03-20T04:39:36;95228.94;;;7.05;64.23
20612;BME280;10465;42.686;23.364;2023-03-20T04:42:02;95245.97;;;7.18;64.37
20612;BME280;10465;42.686;23.364;2023-03-20T04:44:28;95242.50;;;7.23;64.90
20612;BME280;10465;42.686;23.364;2023-03-20T04:46:54;95255.91;;;7.26;65.13
20612;BME280;10465;42.686;23.364;2023-03-20T04:49:19;95257.25;;;7.24;65.17
20612;BME280;10465;42.686;23.364;2023-03-20T04:51:45;95237.88;;;7.04;64.79
20612;BME280;10465;42.686;23.364;2023-03-20T04:54:10;95243.13;;;7.09;65.04
20612;BME280;10465;42.686;23.364;2023-03-20T04:56:36;95239.09;;;7.17;64.98
20612;BME280;10465;42.686;23.364;2023-03-20T04:59:01;95231.44;;;7.21;65.09
20612;BME280;10465;42.686;23.364;2023-03-20T05:01:26;95267.63;;;7.44;64.33
20612;BME280;10465;42.686;23.364;2023-03-20T05:03:52;95267.88;;;7.48;63.56
20612;BME280;10465;42.686;23.364;2023-03-20T05:06:22;95238.47;;;7.35;63.40
20612;BME280;10465;42.686;23.364;2023-03-20T05:08:47;95254.66;;;7.53;62.88
20612;BME280;10465;42.686;23.364;2023-03-20T05:11:12;95276.75;;;7.62;62.38
20612;BME280;10465;42.686;23.364;2023-03-20T05:13:38;95267.53;;;7.59;62.46
20612;BME280;10465;42.686;23.364;2023-03-20T05:16:03;95278.44;;;7.77;62.04
20612;BME280;10465;42.686;23.364;2023-03-20T05:18:29;95278.19;;;7.78;62.02
20612;BME280;10465;42.686;23.364;2023-03-20T05:20:54;95269.53;;;7.73;62.05
20612;BME280;10465;42.686;23.364;2023-03-20T05:23:20;95266.34;;;7.76;61.99
20612;BME280;10465;42.686;23.364;2023-03-20T05:25:45;95274.72;;;7.83;61.62
20612;BME280;10465;42.686;23.364;2023-03-20T05:28:11;95255.50;;;7.82;61.16
20612;BME280;10465;42.686;23.364;2023-03-20T05:30:36;95282.69;;;8.02;61.90
20612;BME280;10465;42.686;23.364;2023-03-20T05:33:02;95225.00;;;7.42;63.21
20612;BME280;10465;42.686;23.364;2023-03-20T05:35:27;95274.84;;;7.67;62.65
20612;BME280;10465;42.686;23.364;2023-03-20T05:37:52;95293.19;;;7.78;63.17
20612;BME280;10465;42.686;23.364;2023-03-20T05:40:18;95292.75;;;7.71;63.38
20612;BME280;10465;42.686;23.364;2023-03-20T05:42:44;95277.22;;;7.64;63.63
20612;BME280;10465;42.686;23.364;2023-03-20T05:45:10;95283.09;;;7.90;62.89
20612;BME280;10465;42.686;23.364;2023-03-20T05:47:36;95267.84;;;7.82;62.79
20612;BME280;10465;42.686;23.364;2023-03-20T05:50:03;95271.19;;;7.92;61.93
20612;BME280;10465;42.686;23.364;2023-03-20T05:52:28;95284.75;;;8.10;62.17
20612;BME280;10465;42.686;23.364;2023-03-20T05:54:54;95300.75;;;8.18;61.47
20612;BME280;10465;42.686;23.364;2023-03-20T05:57:20;95244.06;;;7.92;60.87
20612;BME280;10465;42.686;23.364;2023-03-20T05:59:46;95284.25;;;8.08;61.54
20612;BME280;10465;42.686;23.364;2023-03-20T06:02:11;95230.78;;;7.73;61.26
20612;BME280;10465;42.686;23.364;2023-03-20T06:04:37;95276.81;;;8.10;61.30
20612;BME280;10465;42.686;23.364;2023-03-20T06:07:02;95290.53;;;8.12;61.18
20612;BME280;10465;42.686;23.364;2023-03-20T06:09:28;95232.56;;;7.83;61.05
20612;BME280;10465;42.686;23.364;2023-03-20T06:11:54;95285.56;;;8.34;60.87
20612;BME280;10465;42.686;23.364;2023-03-20T06:14:20;95273.72;;;8.32;60.64
20612;BME280;10465;42.686;23.364;2023-03-20T06:16:46;95290.81;;;8.39;60.85
20612;BME280;10465;42.686;23.364;2023-03-20T06:19:11;95298.63;;;8.50;60.55
20612;BME280;10465;42.686;23.364;2023-03-20T06:21:37;95294.81;;;8.61;60.20
20612;BME280;10465;42.686;23.364;2023-03-20T06:24:02;95297.06;;;8.73;59.58
20612;BME280;10465;42.686;23.364;2023-03-20T06:26:28;95297.50;;;8.80;59.71
20612;BME280;10465;42.686;23.364;2023-03-20T06:28:53;95295.56;;;8.85;59.73
20612;BME280;10465;42.686;23.364;2023-03-20T06:31:18;95295.28;;;8.87;59.41
20612;BME280;10465;42.686;23.364;2023-03-20T06:33:44;95293.00;;;8.80;60.00
20612;BME280;10465;42.686;23.364;2023-03-20T06:36:10;95273.53;;;8.76;59.17
20612;BME280;10465;42.686;23.364;2023-03-20T06:38:36;95304.22;;;8.91;59.59
20612;BME280;10465;42.686;23.364;2023-03-20T06:41:02;95304.09;;;9.01;59.74
20612;BME280;10465;42.686;23.364;2023-03-20T06:43:27;95303.16;;;9.11;59.14
20612;BME280;10465;42.686;23.364;2023-03-20T06:45:53;95304.38;;;9.19;58.67
20612;BME280;10465;42.686;23.364;2023-03-20T06:48:18;95265.72;;;9.09;58.25
20612;BME280;10465;42.686;23.364;2023-03-20T06:50:48;95240.72;;;9.01;58.23
20612;BME280;10465;42.686;23.364;2023-03-20T06:53:13;95294.53;;;9.43;58.17
20612;BME280;10465;42.686;23.364;2023-03-20T06:55:39;95290.97;;;9.53;57.38
20612;BME280;10465;42.686;23.364;2023-03-20T06:58:05;95287.03;;;9.69;57.53
20612;BME280;10465;42.686;23.364;2023-03-20T07:00:30;95246.19;;;9.61;57.24
20612;BME280;10465;42.686;23.364;2023-03-20T07:02:56;95284.81;;;10.09;56.83
20612;BME280;10465;42.686;23.364;2023-03-20T07:05:22;95265.88;;;10.15;56.04
20612;BME280;10465;42.686;23.364;2023-03-20T07:07:47;95277.22;;;10.49;55.07
20612;BME280;10465;42.686;23.364;2023-03-20T07:10:13;95275.16;;;10.73;53.67
20612;BME280;10465;42.686;23.364;2023-03-20T07:12:39;95280.66;;;10.91;53.39
20612;BME280;10465;42.686;23.364;2023-03-20T07:15:06;95282.09;;;10.97;52.77
20612;BME280;10465;42.686;23.364;2023-03-20T07:17:32;95279.47;;;10.97;53.09
20612;BME280;10465;42.686;23.364;2023-03-20T07:19:57;95279.72;;;11.09;53.25
20612;BME280;10465;42.686;23.364;2023-03-20T07:22:24;95273.25;;;11.15;53.17
20612;BME280;10465;42.686;23.364;2023-03-20T07:24:51;95270.09;;;11.13;53.11
20612;BME280;10465;42.686;23.364;2023-03-20T07:27:17;95273.81;;;11.26;52.46
20612;BME280;10465;42.686;23.364;2023-03-20T07:29:42;95275.53;;;11.44;52.76
20612;BME280;10465;42.686;23.364;2023-03-20T07:32:08;95273.00;;;11.61;51.58
20612;BME280;10465;42.686;23.364;2023-03-20T07:34:34;95274.53;;;11.76;50.97
20612;BME280;10465;42.686;23.364;2023-03-20T07:37:00;95279.13;;;11.84;51.23
20612;BME280;10465;42.686;23.364;2023-03-20T07:39:25;95281.47;;;11.86;51.38
20612;BME280;10465;42.686;23.364;2023-03-20T07:41:51;95248.91;;;11.72;51.30
20612;BME280;10465;42.686;23.364;2023-03-20T07:44:17;95271.78;;;12.04;50.60
20612;BME280;10465;42.686;23.364;2023-03-20T07:46:44;95281.16;;;12.10;50.01
20612;BME280;10465;42.686;23.364;2023-03-20T07:49:12;95223.22;;;11.81;49.84
20612;BME280;10465;42.686;23.364;2023-03-20T07:51:38;95274.91;;;12.37;50.12
20612;BME280;10465;42.686;23.364;2023-03-20T07:54:04;95280.84;;;12.43;49.95
20612;BME280;10465;42.686;23.364;2023-03-20T07:56:29;95249.13;;;12.37;49.70
20612;BME280;10465;42.686;23.364;2023-03-20T07:58:55;95285.03;;;12.75;48.93
20612;BME280;10465;42.686;23.364;2023-03-20T08:01:21;95278.69;;;12.93;49.41
20612;BME280;10465;42.686;23.364;2023-03-20T08:03:46;95265.13;;;13.12;48.27
20612;BME280;10465;42.686;23.364;2023-03-20T08:06:12;95278.28;;;13.08;47.79
20612;BME280;10465;42.686;23.364;2023-03-20T08:08:38;95249.31;;;12.98;48.23
20612;BME280;10465;42.686;23.364;2023-03-20T08:11:03;95270.34;;;13.34;47.65
20612;BME280;10465;42.686;23.364;2023-03-20T08:13:29;95268.78;;;13.33;47.21
20612;BME280;10465;42.686;23.364;2023-03-20T08:15:54;95271.91;;;13.44;46.46
20612;BME280;10465;42.686;23.364;2023-03-20T08:18:19;95267.66;;;13.69;45.77
20612;BME280;10465;42.686;23.364;2023-03-20T08:20:47;95274.09;;;13.85;46.00
20612;BME280;10465;42.686;23.364;2023-03-20T08:23:14;95279.22;;;13.99;45.62
20612;BME280;10465;42.686;23.364;2023-03-20T08:25:40;95262.31;;;14.04;44.93
20612;BME280;10465;42.686;23.364;2023-03-20T08:28:06;95280.25;;;14.33;44.73
20612;BME280;10465;42.686;23.364;2023-03-20T08:30:31;95275.94;;;14.67;43.58
20612;BME280;10465;42.686;23.364;2023-03-20T08:32:57;95281.31;;;14.88;44.36
20612;BME280;10465;42.686;23.364;2023-03-20T08:35:23;95273.91;;;14.93;43.53
20612;BME280;10465;42.686;23.364;2023-03-20T08:37:49;95259.44;;;14.73;43.57
20612;BME280;10465;42.686;23.364;2023-03-20T08:40:14;95255.81;;;14.78;43.87
20612;BME280;10465;42.686;23.364;2023-03-20T08:42:41;95269.00;;;15.04;43.18
20612;BME280;10465;42.686;23.364;2023-03-20T08:45:07;95241.72;;;15.07;42.42
20612;BME280;10465;42.686;23.364;2023-03-20T08:47:32;95260.69;;;15.47;42.19
20612;BME280;10465;42.686;23.364;2023-03-20T08:49:58;95271.56;;;15.63;42.00
20612;BME280;10465;42.686;23.364;2023-03-20T08:52:23;95268.88;;;15.72;41.42
20612;BME280;10465;42.686;23.364;2023-03-20T08:54:49;95268.00;;;15.80;41.10
20612;BME280;10465;42.686;23.364;2023-03-20T08:57:14;95258.19;;;16.05;40.69
20612;BME280;10465;42.686;23.364;2023-03-20T08:59:40;95265.81;;;16.27;39.75
20612;BME280;10465;42.686;23.364;2023-03-20T09:02:06;95267.91;;;16.22;39.47
20612;BME280;10465;42.686;23.364;2023-03-20T09:04:31;95231.19;;;16.31;38.75
20612;BME280;10465;42.686;23.364;2023-03-20T09:06:57;95256.94;;;16.72;37.26
20612;BME280;10465;42.686;23.364;2023-03-20T09:09:22;95263.09;;;16.85;37.04
20612;BME280;10465;42.686;23.364;2023-03-20T09:11:54;95256.06;;;17.05;36.75
20612;BME280;10465;42.686;23.364;2023-03-20T09:14:21;95236.66;;;17.20;36.22
20612;BME280;10465;42.686;23.364;2023-03-20T09:16:46;95250.19;;;17.52;35.78
20612;BME280;10465;42.686;23.364;2023-03-20T09:19:12;95245.13;;;17.75;35.73
20612;BME280;10465;42.686;23.364;2023-03-20T09:21:37;95247.75;;;17.87;35.70
20612;BME280;10465;42.686;23.364;2023-03-20T09:24:03;95238.72;;;18.08;35.83
20612;BME280;10465;42.686;23.364;2023-03-20T09:26:29;95229.75;;;18.16;36.12
20612;BME280;10465;42.686;23.364;2023-03-20T09:28:54;95240.69;;;18.11;36.29
20612;BME280;10465;42.686;23.364;2023-03-20T09:31:20;95235.84;;;18.00;36.24
20612;BME280;10465;42.686;23.364;2023-03-20T09:33:47;95231.38;;;18.04;35.62
20612;BME280;10465;42.686;23.364;2023-03-20T09:36:12;95230.50;;;18.00;36.02
20612;BME280;10465;42.686;23.364;2023-03-20T09:38:40;95223.25;;;18.01;35.73
20612;BME280;10465;42.686;23.364;2023-03-20T09:41:21;95227.41;;;18.14;35.36
20612;BME280;10465;42.686;23.364;2023-03-20T09:44:08;95214.97;;;18.22;35.33
20612;BME280;10465;42.686;23.364;2023-03-20T09:51:58;95203.91;;;18.71;34.45
20612;BME280;10465;42.686;23.364;2023-03-20T09:54:28;95192.13;;;18.75;34.28
20612;BME280;10465;42.686;23.364;2023-03-20T09:56:56;95185.91;;;18.87;34.47
20612;BME280;10465;42.686;23.364;2023-03-20T09:59:24;95165.97;;;19.04;33.94
20612;BME280;10465;42.686;23.364;2023-03-20T10:01:57;95176.78;;;19.27;33.28
20612;BME280;10465;42.686;23.364;2023-03-20T10:04:25;95171.22;;;19.16;33.33
20612;BME280;10465;42.686;23.364;2023-03-20T10:06:53;95173.88;;;19.36;33.53
20612;BME280;10465;42.686;23.364;2023-03-20T10:09:24;95152.84;;;19.18;33.45
20612;BME280;10465;42.686;23.364;2023-03-20T10:14:52;95146.31;;;18.81;34.13
20612;BME280;10465;42.686;23.364;2023-03-20T10:20:19;95148.75;;;19.05;33.90
20612;BME280;10465;42.686;23.364;2023-03-20T10:22:57;95148.50;;;19.52;33.42
20612;BME280;10465;42.686;23.364;2023-03-20T10:25:45;95146.06;;;19.63;33.22
20612;BME280;10465;42.686;23.364;2023-03-20T10:28:24;95133.41;;;19.64;33.08
20612;BME280;10465;42.686;23.364;2023-03-20T10:30:58;95135.69;;;19.62;32.61
20612;BME280;10465;42.686;23.364;2023-03-20T10:42:12;95082.34;;;20.06;31.56
20612;BME280;10465;42.686;23.364;2023-03-20T10:44:43;95104.28;;;20.35;31.49
20612;BME280;10465;42.686;23.364;2023-03-20T10:47:13;95096.50;;;20.53;31.28
20612;BME280;10465;42.686;23.364;2023-03-20T10:50:07;95089.97;;;20.80;31.10
20612;BME280;10465;42.686;23.364;2023-03-20T10:52:38;95108.94;;;21.21;30.31
20612;BME280;10465;42.686;23.364;2023-03-20T10:55:24;95096.63;;;21.54;29.84
20612;BME280;10465;42.686;23.364;2023-03-20T10:57:58;95101.25;;;21.53;29.63
20612;BME280;10465;42.686;23.364;2023-03-20T11:00:25;95093.38;;;21.37;29.90
20612;BME280;10465;42.686;23.364;2023-03-20T11:02:51;95074.63;;;21.14;29.75
20612;BME280;10465;42.686;23.364;2023-03-20T11:05:24;95092.00;;;21.20;29.80
20612;BME280;10465;42.686;23.364;2023-03-20T11:08:01;95080.81;;;21.48;29.57
20612;BME280;10465;42.686;23.364;2023-03-20T11:10:30;95080.53;;;21.61;29.23
20612;BME280;10465;42.686;23.364;2023-03-20T11:12:56;95072.53;;;21.68;29.40
20612;BME280;10465;42.686;23.364;2023-03-20T11:17:58;95076.72;;;22.10;29.51
20612;BME280;10465;42.686;23.364;2023-03-20T11:20:26;95059.94;;;22.27;28.80
20612;BME280;10465;42.686;23.364;2023-03-20T11:23:00;95062.34;;;22.39;28.55
20612;BME280;10465;42.686;23.364;2023-03-20T11:25:31;95055.03;;;22.43;28.38
20612;BME280;10465;42.686;23.364;2023-03-20T11:30:43;95045.84;;;22.55;28.36
20612;BME280;10465;42.686;23.364;2023-03-20T11:33:09;95042.06;;;22.67;27.79
20612;BME280;10465;42.686;23.364;2023-03-20T11:35:34;95047.81;;;22.58;27.89
20612;BME280;10465;42.686;23.364;2023-03-20T11:38:16;95032.00;;;22.60;26.61
20612;BME280;10465;42.686;23.364;2023-03-20T11:40:44;95038.19;;;22.64;26.22
20612;BME280;10465;42.686;23.364;2023-03-20T11:43:15;95023.59;;;22.73;26.14
20612;BME280;10465;42.686;23.364;2023-03-20T11:45:45;95002.44;;;22.82;25.96
20612;BME280;10465;42.686;23.364;2023-03-20T11:48:23;95020.31;;;23.11;25.18
20612;BME280;10465;42.686;23.364;2023-03-20T11:51:05;95009.53;;;23.18;24.93
20612;BME280;10465;42.686;23.364;2023-03-20T11:56:12;94989.06;;;23.21;24.33
20612;BME280;10465;42.686;23.364;2023-03-20T12:01:56;94991.06;;;23.60;24.84
20612;BME280;10465;42.686;23.364;2023-03-20T12:04:30;94970.22;;;23.64;24.02
20612;BME280;10465;42.686;23.364;2023-03-20T12:07:00;94987.63;;;23.81;23.75
20612;BME280;10465;42.686;23.364;2023-03-20T12:09:41;94981.06;;;23.89;22.96
20612;BME280;10465;42.686;23.364;2023-03-20T12:12:18;94981.44;;;23.80;23.36
20612;BME280;10465;42.686;23.364;2023-03-20T12:15:09;94956.72;;;23.82;23.07
20612;BME280;10465;42.686;23.364;2023-03-20T12:20:40;94968.28;;;23.64;22.60
20612;BME280;10465;42.686;23.364;2023-03-20T12:25:56;94960.22;;;23.79;22.00
20612;BME280;10465;42.686;23.364;2023-03-20T12:31:24;94941.28;;;23.86;22.01
20612;BME280;10465;42.686;23.364;2023-03-20T12:33:56;94952.06;;;24.07;21.95
20612;BME280;10465;42.686;23.364;2023-03-20T12:36:44;94945.88;;;24.10;21.71
20612;BME280;10465;42.686;23.364;2023-03-20T12:39:18;94944.75;;;24.01;20.77
20612;BME280;10465;42.686;23.364;2023-03-20T12:42:03;94936.66;;;23.86;20.12
20612;BME280;10465;42.686;23.364;2023-03-20T12:44:48;94940.50;;;23.85;19.84
20612;BME280;10465;42.686;23.364;2023-03-20T12:55:56;94908.88;;;23.68;19.87
20612;BME280;10465;42.686;23.364;2023-03-20T12:58:46;94919.63;;;24.00;19.88
20612;BME280;10465;42.686;23.364;2023-03-20T13:01:31;94904.16;;;24.08;19.83
20612;BME280;10465;42.686;23.364;2023-03-20T13:07:06;94867.50;;;23.92;19.99
20612;BME280;10465;42.686;23.364;2023-03-20T13:15:10;94901.13;;;23.95;20.13
20612;BME280;10465;42.686;23.364;2023-03-20T13:17:49;94889.88;;;24.07;20.32
20612;BME280;10465;42.686;23.364;2023-03-20T13:20:24;94898.00;;;24.00;20.50
20612;BME280;10465;42.686;23.364;2023-03-20T13:23:16;94890.28;;;23.99;19.89
20612;BME280;10465;42.686;23.364;2023-03-20T13:42:20;94854.75;;;23.89;20.25
20612;BME280;10465;42.686;23.364;2023-03-20T13:44:49;94861.34;;;23.92;20.63
20612;BME280;10465;42.686;23.364;2023-03-20T13:47:21;94858.28;;;23.76;20.83
20612;BME280;10465;42.686;23.364;2023-03-20T13:50:22;94858.69;;;23.74;20.44
20612;BME280;10465;42.686;23.364;2023-03-20T13:59:21;94846.69;;;23.64;20.29
20612;BME280;10465;42.686;23.364;2023-03-20T14:01:37;94856.75;;;23.42;20.31
20612;BME280;10465;42.686;23.364;2023-03-20T14:04:12;94844.03;;;23.22;20.51
20612;BME280;10465;42.686;23.364;2023-03-20T14:09:26;94826.69;;;23.15;20.58
20612;BME280;10465;42.686;23.364;2023-03-20T14:12:01;94842.50;;;23.35;20.59
20612;BME280;10465;42.686;23.364;2023-03-20T14:14:29;94832.47;;;23.42;19.79
20612;BME280;10465;42.686;23.364;2023-03-20T14:19:42;94813.53;;;23.42;19.99
20612;BME280;10465;42.686;23.364;2023-03-20T14:22:15;94819.72;;;23.47;20.07
20612;BME280;10465;42.686;23.364;2023-03-20T14:25:08;94825.88;;;23.47;20.24
20612;BME280;10465;42.686;23.364;2023-03-20T14:27:52;94820.09;;;23.45;19.40
20612;BME280;10465;42.686;23.364;2023-03-20T14:35:26;94817.38;;;23.45;20.38
20612;BME280;10465;42.686;23.364;2023-03-20T14:40:37;94806.97;;;23.43;20.37
20612;BME280;10465;42.686;23.364;2023-03-20T14:43:39;94809.28;;;23.49;20.02
20612;BME280;10465;42.686;23.364;2023-03-20T14:46:21;94803.84;;;23.63;20.40
20612;BME280;10465;42.686;23.364;2023-03-20T14:48:54;94790.38;;;23.66;20.08
20612;BME280;10465;42.686;23.364;2023-03-20T14:51:35;94805.34;;;23.82;19.94
20612;BME280;10465;42.686;23.364;2023-03-20T14:56:48;94803.88;;;23.49;19.91
20612;BME280;10465;42.686;23.364;2023-03-20T14:59:15;94805.84;;;23.34;20.21
20612;BME280;10465;42.686;23.364;2023-03-20T15:01:47;94783.88;;;23.07;20.10
20612;BME280;10465;42.686;23.364;2023-03-20T15:07:43;94801.59;;;22.90;20.68
20612;BME280;10465;42.686;23.364;2023-03-20T15:09:46;94803.09;;;22.77;20.37
20612;BME280;10465;42.686;23.364;2023-03-20T15:12:15;94805.41;;;22.57;20.51
20612;BME280;10465;42.686;23.364;2023-03-20T15:15:03;94803.06;;;22.37;20.35
20612;BME280;10465;42.686;23.364;2023-03-20T15:20:02;94807.53;;;22.01;21.53